sensor_id;sensor_type;location;lat;lon;timestamp;temperature;humidity
19385;DHT22;9828;54.122;17.974;2023-01-01T00:02:50;11.70;99.90
19385;DHT22;9828;54.122;17.974;2023-01-01T00:08:11;11.70;99.90
19385;DHT22;9828;54.122;17.974;2023-01-01T00:13:33;11.80;99.90
19385;DHT22;9828;54.122;17.974;2023-01-01T00:18:54;11.80;99.90
19385;DHT22;9828;54.122;17.974;2023-01-01T00:24:15;12.00;99.90
19385;DHT22;9828;54.122;17.974;2023-01-01T00:29:37;11.90;99.90
19385;DHT22;9828;54.122;17.974;2023-01-01T00:34:58;11.90;99.90
19385;DHT22;9828;54.122;17.974;2023-01-01T00:40:19;12.00;99.90
19385;DHT22;9828;54.122;17.974;2023-01-01T00:45:40;12.00;99.90
19385;DHT22;9828;54.122;17.974;2023-01-01T00:51:02;12.00;99.90
19385;DHT22;9828;54.122;17.974;2023-01-01T00:56:23;12.00;99.90
19385;DHT22;9828;54.122;17.974;2023-01-01T01:01:44;12.00;99.90
19385;DHT22;9828;54.122;17.974;2023-01-01T01:07:05;12.00;99.90
19385;DHT22;9828;54.122;17.974;2023-01-01T01:12:26;12.00;99.90
19385;DHT22;9828;54.122;17.974;2023-01-01T01:17:48;11.90;99.90
19385;DHT22;9828;54.122;17.974;2023-01-01T01:23:08;12.00;99.90
19385;DHT22;9828;54.122;17.974;2023-01-01T01:28:29;11.90;99.90
19385;DHT22;9828;54.122;17.974;2023-01-01T01:33:50;11.90;99.90
19385;DHT22;9828;54.122;17.974;2023-01-01T01:39:12;12.00;99.90
19385;DHT22;9828;54.122;17.974;2023-01-01T01:55:47;12.00;99.90
19385;DHT22;9828;54.122;17.974;2023-01-01T02:01:08;11.90;99.90
19385;DHT22;9828;54.122;17.974;2023-01-01T02:06:31;11.80;99.90
19385;DHT22;9828;54.122;17.974;2023-01-01T02:11:53;12.00;99.90
19385;DHT22;9828;54.122;17.974;2023-01-01T02:17:45;11.90;99.90
19385;DHT22;9828;54.122;17.974;2023-01-01T02:34:14;11.90;99.90
19385;DHT22;9828;54.122;17.974;2023-01-01T02:39:44;11.80;99.90
19385;DHT22;9828;54.122;17.974;2023-01-01T02:45:06;12.00;99.90
19385;DHT22;9828;54.122;17.974;2023-01-01T02:50:28;11.90;99.90
19385;DHT22;9828;54.122;17.974;2023-01-01T03:01:34;11.90;99.90
19385;DHT22;9828;54.122;17.974;2023-01-01T03:07:29;12.00;99.90
19385;DHT22;9828;54.122;17.974;2023-01-01T03:13:27;11.90;99.90
19385;DHT22;9828;54.122;17.974;2023-01-01T03:19:11;12.00;1.00
19385;DHT22;9828;54.122;17.974;2023-01-01T03:24:46;12.00;1.00
19385;DHT22;9828;54.122;17.974;2023-01-01T03:30:10;12.20;1.00
19385;DHT22;9828;54.122;17.974;2023-01-01T03:35:39;12.10;1.00
19385;DHT22;9828;54.122;17.974;2023-01-01T03:41:10;12.10;1.00
19385;DHT22;9828;54.122;17.974;2023-01-01T03:46:34;12.20;1.00
19385;DHT22;9828;54.122;17.974;2023-01-01T04:03:26;12.30;1.00
19385;DHT22;9828;54.122;17.974;2023-01-01T04:08:50;12.40;1.00
19385;DHT22;9828;54.122;17.974;2023-01-01T04:14:13;12.40;1.00
19385;DHT22;9828;54.122;17.974;2023-01-01T04:19:34;12.40;1.00
19385;DHT22;9828;54.122;17.974;2023-01-01T04:24:55;12.40;1.00
19385;DHT22;9828;54.122;17.974;2023-01-01T04:30:16;12.40;1.00
19385;DHT22;9828;54.122;17.974;2023-01-01T04:35:37;12.40;1.00
19385;DHT22;9828;54.122;17.974;2023-01-01T04:41:00;12.40;99.90
19385;DHT22;9828;54.122;17.974;2023-01-01T04:46:23;12.40;99.90
19385;DHT22;9828;54.122;17.974;2023-01-01T04:51:44;12.40;99.90
19385;DHT22;9828;54.122;17.974;2023-01-01T04:57:05;12.40;99.90
19385;DHT22;9828;54.122;17.974;2023-01-01T05:02:26;12.30;99.90
19385;DHT22;9828;54.122;17.974;2023-01-01T05:07:47;12.40;99.90
19385;DHT22;9828;54.122;17.974;2023-01-01T05:13:08;12.40;99.90
19385;DHT22;9828;54.122;17.974;2023-01-01T05:18:29;12.50;99.90
19385;DHT22;9828;54.122;17.974;2023-01-01T05:23:55;12.50;36.60
19385;DHT22;9828;54.122;17.974;2023-01-01T05:29:16;12.40;99.90
19385;DHT22;9828;54.122;17.974;2023-01-01T05:34:39;12.40;99.90
19385;DHT22;9828;54.122;17.974;2023-01-01T05:40:00;12.40;99.90
19385;DHT22;9828;54.122;17.974;2023-01-01T05:45:21;12.50;2.80
19385;DHT22;9828;54.122;17.974;2023-01-01T05:50:42;12.60;1.00
19385;DHT22;9828;54.122;17.974;2023-01-01T05:56:06;12.60;1.00
19385;DHT22;9828;54.122;17.974;2023-01-01T06:01:29;12.70;99.90
19385;DHT22;9828;54.122;17.974;2023-01-01T06:06:50;12.70;99.90
19385;DHT22;9828;54.122;17.974;2023-01-01T06:12:12;12.50;1.00
19385;DHT22;9828;54.122;17.974;2023-01-01T06:17:33;12.50;1.00
19385;DHT22;9828;54.122;17.974;2023-01-01T06:22:54;12.70;99.90
19385;DHT22;9828;54.122;17.974;2023-01-01T06:28:15;12.60;99.90
19385;DHT22;9828;54.122;17.974;2023-01-01T06:33:38;12.60;99.90
19385;DHT22;9828;54.122;17.974;2023-01-01T06:38:59;12.60;99.90
19385;DHT22;9828;54.122;17.974;2023-01-01T06:44:21;12.70;18.70
19385;DHT22;9828;54.122;17.974;2023-01-01T06:49:42;12.60;94.60
19385;DHT22;9828;54.122;17.974;2023-01-01T06:55:03;12.60;1.00
19385;DHT22;9828;54.122;17.974;2023-01-01T07:00:25;12.70;99.90
19385;DHT22;9828;54.122;17.974;2023-01-01T07:05:46;12.60;1.00
19385;DHT22;9828;54.122;17.974;2023-01-01T07:11:07;12.60;99.90
19385;DHT22;9828;54.122;17.974;2023-01-01T07:16:28;12.80;99.90
19385;DHT22;9828;54.122;17.974;2023-01-01T07:21:53;12.70;1.00
19385;DHT22;9828;54.122;17.974;2023-01-01T07:27:14;12.70;1.00
19385;DHT22;9828;54.122;17.974;2023-01-01T07:32:36;12.50;1.00
19385;DHT22;9828;54.122;17.974;2023-01-01T07:37:57;12.60;1.00
19385;DHT22;9828;54.122;17.974;2023-01-01T07:43:18;12.70;99.90
19385;DHT22;9828;54.122;17.974;2023-01-01T07:48:39;12.60;1.00
19385;DHT22;9828;54.122;17.974;2023-01-01T07:54:00;12.60;1.00
19385;DHT22;9828;54.122;17.974;2023-01-01T07:59:25;12.60;1.00
19385;DHT22;9828;54.122;17.974;2023-01-01T08:04:46;12.40;99.90
19385;DHT22;9828;54.122;17.974;2023-01-01T08:10:08;12.50;99.90
19385;DHT22;9828;54.122;17.974;2023-01-01T08:15:29;12.50;99.90
19385;DHT22;9828;54.122;17.974;2023-01-01T08:20:50;12.60;1.00
19385;DHT22;9828;54.122;17.974;2023-01-01T08:26:16;12.50;99.90
19385;DHT22;9828;54.122;17.974;2023-01-01T08:31:37;12.60;1.00
19385;DHT22;9828;54.122;17.974;2023-01-01T08:36:58;12.60;1.00
19385;DHT22;9828;54.122;17.974;2023-01-01T08:42:19;12.70;1.00
19385;DHT22;9828;54.122;17.974;2023-01-01T08:47:42;12.70;1.00
19385;DHT22;9828;54.122;17.974;2023-01-01T08:53:03;12.60;38.70
19385;DHT22;9828;54.122;17.974;2023-01-01T08:58:24;12.50;99.90
19385;DHT22;9828;54.122;17.974;2023-01-01T09:03:46;12.70;1.00
19385;DHT22;9828;54.122;17.974;2023-01-01T09:09:07;12.80;1.00
19385;DHT22;9828;54.122;17.974;2023-01-01T09:14:28;12.80;1.00
19385;DHT22;9828;54.122;17.974;2023-01-01T09:19:49;12.90;1.00
19385;DHT22;9828;54.122;17.974;2023-01-01T09:25:10;13.00;99.90
19385;DHT22;9828;54.122;17.974;2023-01-01T09:30:32;13.10;1.00
19385;DHT22;9828;54.122;17.974;2023-01-01T09:35:53;13.10;99.90
19385;DHT22;9828;54.122;17.974;2023-01-01T09:46:58;13.30;1.00
19385;DHT22;9828;54.122;17.974;2023-01-01T09:52:20;13.40;99.90
19385;DHT22;9828;54.122;17.974;2023-01-01T09:57:41;13.50;1.00
19385;DHT22;9828;54.122;17.974;2023-01-01T10:03:14;13.60;99.90
19385;DHT22;9828;54.122;17.974;2023-01-01T10:14:21;13.80;1.00
19385;DHT22;9828;54.122;17.974;2023-01-01T10:19:48;13.90;99.90
19385;DHT22;9828;54.122;17.974;2023-01-01T10:25:20;13.90;99.90
19385;DHT22;9828;54.122;17.974;2023-01-01T10:30:43;13.90;99.90
19385;DHT22;9828;54.122;17.974;2023-01-01T10:36:04;14.00;99.90
19385;DHT22;9828;54.122;17.974;2023-01-01T10:41:25;14.10;1.00
19385;DHT22;9828;54.122;17.974;2023-01-01T10:46:51;14.20;1.00
19385;DHT22;9828;54.122;17.974;2023-01-01T10:52:14;14.20;1.00
19385;DHT22;9828;54.122;17.974;2023-01-01T10:57:37;14.20;1.00
19385;DHT22;9828;54.122;17.974;2023-01-01T11:08:34;14.20;1.00
19385;DHT22;9828;54.122;17.974;2023-01-01T11:14:01;14.20;1.00
19385;DHT22;9828;54.122;17.974;2023-01-01T11:19:33;14.30;1.00
19385;DHT22;9828;54.122;17.974;2023-01-01T11:25:00;14.40;1.00
19385;DHT22;9828;54.122;17.974;2023-01-01T11:30:27;14.40;1.00
19385;DHT22;9828;54.122;17.974;2023-01-01T11:35:52;14.40;1.00
19385;DHT22;9828;54.122;17.974;2023-01-01T11:41:14;14.20;1.00
19385;DHT22;9828;54.122;17.974;2023-01-01T11:46:37;14.20;1.00
19385;DHT22;9828;54.122;17.974;2023-01-01T11:51:58;14.20;1.00
19385;DHT22;9828;54.122;17.974;2023-01-01T11:57:22;14.20;1.00
19385;DHT22;9828;54.122;17.974;2023-01-01T12:02:59;14.30;1.00
19385;DHT22;9828;54.122;17.974;2023-01-01T12:09:07;14.30;1.00
19385;DHT22;9828;54.122;17.974;2023-01-01T12:14:19;14.40;1.00
19385;DHT22;9828;54.122;17.974;2023-01-01T12:20:04;14.40;99.90
19385;DHT22;9828;54.122;17.974;2023-01-01T12:25:38;14.30;1.00
19385;DHT22;9828;54.122;17.974;2023-01-01T12:31:22;14.10;1.00
19385;DHT22;9828;54.122;17.974;2023-01-01T12:42:25;14.00;1.00
19385;DHT22;9828;54.122;17.974;2023-01-01T12:59:50;14.10;1.00
19385;DHT22;9828;54.122;17.974;2023-01-01T13:05:21;13.90;1.00
19385;DHT22;9828;54.122;17.974;2023-01-01T13:10:45;13.90;1.00
19385;DHT22;9828;54.122;17.974;2023-01-01T13:16:12;13.90;1.00
19385;DHT22;9828;54.122;17.974;2023-01-01T13:21:50;13.80;1.00
19385;DHT22;9828;54.122;17.974;2023-01-01T13:27:11;13.70;1.00
19385;DHT22;9828;54.122;17.974;2023-01-01T13:38:53;13.60;1.00
19385;DHT22;9828;54.122;17.974;2023-01-01T13:44:18;13.50;1.00
19385;DHT22;9828;54.122;17.974;2023-01-01T13:50:03;13.40;58.20
19385;DHT22;9828;54.122;17.974;2023-01-01T14:06:51;13.10;1.00
19385;DHT22;9828;54.122;17.974;2023-01-01T14:12:19;13.10;1.00
19385;DHT22;9828;54.122;17.974;2023-01-01T14:17:42;13.00;1.00
19385;DHT22;9828;54.122;17.974;2023-01-01T14:23:09;13.00;1.00
19385;DHT22;9828;54.122;17.974;2023-01-01T14:28:33;13.00;1.00
19385;DHT22;9828;54.122;17.974;2023-01-01T14:33:55;12.90;1.00
19385;DHT22;9828;54.122;17.974;2023-01-01T14:39:26;12.80;99.90
19385;DHT22;9828;54.122;17.974;2023-01-01T14:44:48;12.70;99.90
19385;DHT22;9828;54.122;17.974;2023-01-01T14:50:23;12.70;99.90
19385;DHT22;9828;54.122;17.974;2023-01-01T14:55:46;12.60;99.90
19385;DHT22;9828;54.122;17.974;2023-01-01T15:01:19;12.60;99.90
19385;DHT22;9828;54.122;17.974;2023-01-01T15:06:41;12.60;90.90
19385;DHT22;9828;54.122;17.974;2023-01-01T15:12:02;12.50;99.90
19385;DHT22;9828;54.122;17.974;2023-01-01T15:17:25;12.50;99.90
19385;DHT22;9828;54.122;17.974;2023-01-01T15:22:47;12.40;99.90
19385;DHT22;9828;54.122;17.974;2023-01-01T15:28:17;12.30;1.00
19385;DHT22;9828;54.122;17.974;2023-01-01T15:33:46;12.30;1.00
19385;DHT22;9828;54.122;17.974;2023-01-01T15:39:10;12.20;46.90
19385;DHT22;9828;54.122;17.974;2023-01-01T15:44:33;12.00;1.00
19385;DHT22;9828;54.122;17.974;2023-01-01T15:55:58;11.80;99.90
19385;DHT22;9828;54.122;17.974;2023-01-01T16:01:26;11.80;1.00
19385;DHT22;9828;54.122;17.974;2023-01-01T16:06:50;11.60;1.00
19385;DHT22;9828;54.122;17.974;2023-01-01T16:12:11;11.50;99.90
19385;DHT22;9828;54.122;17.974;2023-01-01T16:17:32;11.50;99.90
19385;DHT22;9828;54.122;17.974;2023-01-01T16:22:54;11.40;94.90
19385;DHT22;9828;54.122;17.974;2023-01-01T16:28:15;11.30;99.90
19385;DHT22;9828;54.122;17.974;2023-01-01T16:33:37;11.30;99.90
19385;DHT22;9828;54.122;17.974;2023-01-01T16:38:58;11.20;1.00
19385;DHT22;9828;54.122;17.974;2023-01-01T16:44:20;11.10;99.90
19385;DHT22;9828;54.122;17.974;2023-01-01T16:49:41;11.00;1.00
19385;DHT22;9828;54.122;17.974;2023-01-01T16:55:02;11.00;1.00
19385;DHT22;9828;54.122;17.974;2023-01-01T17:00:24;11.00;1.00
19385;DHT22;9828;54.122;17.974;2023-01-01T17:05:45;11.00;99.90
19385;DHT22;9828;54.122;17.974;2023-01-01T17:11:12;10.90;1.00
19385;DHT22;9828;54.122;17.974;2023-01-01T17:16:35;10.80;47.90
19385;DHT22;9828;54.122;17.974;2023-01-01T17:21:59;10.80;99.90
19385;DHT22;9828;54.122;17.974;2023-01-01T17:27:20;10.70;99.90
19385;DHT22;9828;54.122;17.974;2023-01-01T17:32:42;10.60;1.00
19385;DHT22;9828;54.122;17.974;2023-01-01T17:38:03;10.50;1.00
19385;DHT22;9828;54.122;17.974;2023-01-01T17:43:24;10.60;1.00
19385;DHT22;9828;54.122;17.974;2023-01-01T17:48:45;10.50;1.00
19385;DHT22;9828;54.122;17.974;2023-01-01T17:54:07;10.40;1.00
19385;DHT22;9828;54.122;17.974;2023-01-01T17:59:32;10.30;1.00
19385;DHT22;9828;54.122;17.974;2023-01-01T18:04:53;10.30;1.00
19385;DHT22;9828;54.122;17.974;2023-01-01T18:10:14;10.30;9.10
19385;DHT22;9828;54.122;17.974;2023-01-01T18:15:37;10.20;55.90
19385;DHT22;9828;54.122;17.974;2023-01-01T18:21:03;10.20;55.10
19385;DHT22;9828;54.122;17.974;2023-01-01T18:26:27;10.10;99.90
19385;DHT22;9828;54.122;17.974;2023-01-01T18:31:48;10.10;99.90
19385;DHT22;9828;54.122;17.974;2023-01-01T18:37:11;10.00;99.90
19385;DHT22;9828;54.122;17.974;2023-01-01T18:43:05;10.00;99.90
19385;DHT22;9828;54.122;17.974;2023-01-01T18:48:29;10.00;99.90
19385;DHT22;9828;54.122;17.974;2023-01-01T18:53:53;10.00;99.90
19385;DHT22;9828;54.122;17.974;2023-01-01T18:59:23;9.90;99.90
19385;DHT22;9828;54.122;17.974;2023-01-01T19:04:44;9.90;99.90
19385;DHT22;9828;54.122;17.974;2023-01-01T19:10:14;9.90;1.00
19385;DHT22;9828;54.122;17.974;2023-01-01T19:15:35;9.90;99.90
19385;DHT22;9828;54.122;17.974;2023-01-01T19:26:37;10.00;1.00
19385;DHT22;9828;54.122;17.974;2023-01-01T19:31:59;9.90;1.00
19385;DHT22;9828;54.122;17.974;2023-01-01T19:37:21;9.90;1.00
19385;DHT22;9828;54.122;17.974;2023-01-01T19:42:42;9.80;1.00
19385;DHT22;9828;54.122;17.974;2023-01-01T19:48:03;9.80;1.00
19385;DHT22;9828;54.122;17.974;2023-01-01T19:53:25;9.80;1.00
19385;DHT22;9828;54.122;17.974;2023-01-01T19:58:46;9.70;1.00
19385;DHT22;9828;54.122;17.974;2023-01-01T20:04:07;9.70;1.00
19385;DHT22;9828;54.122;17.974;2023-01-01T20:09:29;9.70;1.00
19385;DHT22;9828;54.122;17.974;2023-01-01T20:14:50;9.70;1.00
19385;DHT22;9828;54.122;17.974;2023-01-01T20:20:12;9.70;1.00
19385;DHT22;9828;54.122;17.974;2023-01-01T20:25:34;9.70;1.00
19385;DHT22;9828;54.122;17.974;2023-01-01T20:30:55;9.60;1.00
19385;DHT22;9828;54.122;17.974;2023-01-01T20:36:16;9.60;1.00
19385;DHT22;9828;54.122;17.974;2023-01-01T20:41:56;9.60;1.00
19385;DHT22;9828;54.122;17.974;2023-01-01T20:47:17;9.60;1.00
19385;DHT22;9828;54.122;17.974;2023-01-01T20:52:38;9.60;1.00
19385;DHT22;9828;54.122;17.974;2023-01-01T20:58:00;9.50;1.00
19385;DHT22;9828;54.122;17.974;2023-01-01T21:03:20;9.60;1.00
19385;DHT22;9828;54.122;17.974;2023-01-01T21:08:45;9.60;1.00
19385;DHT22;9828;54.122;17.974;2023-01-01T21:14:06;9.60;1.00
19385;DHT22;9828;54.122;17.974;2023-01-01T21:19:28;9.50;1.00
19385;DHT22;9828;54.122;17.974;2023-01-01T21:24:49;9.50;1.00
19385;DHT22;9828;54.122;17.974;2023-01-01T21:30:13;9.40;1.00
19385;DHT22;9828;54.122;17.974;2023-01-01T21:35:36;9.40;1.00
19385;DHT22;9828;54.122;17.974;2023-01-01T21:40:59;9.40;1.00
19385;DHT22;9828;54.122;17.974;2023-01-01T21:46:32;9.40;1.00
19385;DHT22;9828;54.122;17.974;2023-01-01T21:51:58;9.40;1.00
19385;DHT22;9828;54.122;17.974;2023-01-01T21:57:22;9.30;1.00
19385;DHT22;9828;54.122;17.974;2023-01-01T22:02:44;9.20;1.00
19385;DHT22;9828;54.122;17.974;2023-01-01T22:08:23;9.30;1.00
19385;DHT22;9828;54.122;17.974;2023-01-01T22:13:44;9.20;1.00
19385;DHT22;9828;54.122;17.974;2023-01-01T22:19:18;9.20;1.00
19385;DHT22;9828;54.122;17.974;2023-01-01T22:35:40;9.10;1.00
19385;DHT22;9828;54.122;17.974;2023-01-01T22:41:01;9.10;1.00
19385;DHT22;9828;54.122;17.974;2023-01-01T22:46:35;9.20;1.00
19385;DHT22;9828;54.122;17.974;2023-01-01T22:51:56;9.20;1.00
19385;DHT22;9828;54.122;17.974;2023-01-01T22:57:18;9.20;1.00
19385;DHT22;9828;54.122;17.974;2023-01-01T23:02:39;9.20;1.00
19385;DHT22;9828;54.122;17.974;2023-01-01T23:08:00;9.20;1.00
19385;DHT22;9828;54.122;17.974;2023-01-01T23:13:21;9.10;1.00
19385;DHT22;9828;54.122;17.974;2023-01-01T23:19:00;9.10;1.00
19385;DHT22;9828;54.122;17.974;2023-01-01T23:24:22;9.20;1.00
19385;DHT22;9828;54.122;17.974;2023-01-01T23:29:45;9.10;1.00
19385;DHT22;9828;54.122;17.974;2023-01-01T23:35:08;9.10;1.00
19385;DHT22;9828;54.122;17.974;2023-01-01T23:40:29;9.10;1.00
19385;DHT22;9828;54.122;17.974;2023-01-01T23:45:50;9.10;1.00
19385;DHT22;9828;54.122;17.974;2023-01-01T23:51:12;9.10;1.00
19385;DHT22;9828;54.122;17.974;2023-01-01T23:56:33;9.10;1.00
